createdAt,value
2018-11-22T18:31:12.723Z,57.93
2018-11-22T18:33:40.215Z,57.47
2018-11-22T18:36:07.675Z,52.97
2018-11-22T18:38:35.159Z,51.27
2018-11-22T18:41:03.005Z,49.33
2018-11-22T18:43:30.495Z,54.83
2018-11-22T18:45:58.070Z,64.13
2018-11-22T18:48:25.502Z,58.97
2018-11-22T18:50:52.989Z,70.63
2018-11-22T18:53:20.591Z,82.87
2018-11-22T18:55:48.285Z,80.63
2018-11-22T18:58:15.770Z,81.57
2018-11-22T19:00:44.588Z,69.23
2018-11-22T19:03:12.792Z,52.70
2018-11-22T19:05:40.378Z,58.27
2018-11-22T19:08:08.113Z,54.50
2018-11-22T19:10:37.265Z,53.90
2018-11-22T19:13:06.262Z,51.40
2018-11-22T19:15:35.672Z,60.67
2018-11-22T19:18:03.322Z,63.97
2018-11-22T19:20:32.508Z,61.40
2018-11-22T19:23:01.010Z,72.43
2018-11-22T19:25:28.639Z,65.30
2018-11-22T19:27:57.153Z,58.70
2018-11-22T19:30:26.777Z,59.77
2018-11-22T19:32:55.474Z,64.97
2018-11-22T19:35:26.453Z,67.27
2018-11-22T19:37:53.939Z,76.77
2018-11-22T19:40:22.795Z,65.33
2018-11-22T19:42:51.390Z,67.60
2018-11-22T19:45:20.018Z,78.40
2018-11-22T19:47:47.902Z,83.03
2018-11-22T19:50:16.644Z,69.73
2018-11-22T19:52:44.818Z,75.23
2018-11-22T19:55:13.914Z,74.60
2018-11-22T19:57:42.528Z,79.80
2018-11-22T20:00:10.792Z,67.50
2018-11-22T20:02:39.047Z,73.77
2018-11-22T20:05:06.946Z,78.83
2018-11-22T20:07:34.477Z,74.97
2018-11-22T20:10:02.074Z,72.67
2018-11-22T20:12:29.555Z,69.13
2018-11-22T20:14:57.002Z,76.93
2018-11-22T20:17:24.455Z,74.70
2018-11-22T20:19:51.895Z,71.47
2018-11-22T20:22:19.404Z,75.53
2018-11-22T20:24:46.820Z,90.80
2018-11-22T20:27:14.262Z,90.80
2018-11-22T20:29:41.687Z,89.83
2018-11-22T20:32:09.374Z,100.07
2018-11-22T20:34:36.888Z,76.90
2018-11-22T20:37:04.416Z,95.93
2018-11-22T20:39:31.891Z,85.57
2018-11-22T20:41:59.393Z,87.03
2018-11-22T20:44:27.039Z,89.07
2018-11-22T20:46:55.113Z,72.47
2018-11-22T20:49:22.598Z,74.10
2018-11-22T20:51:50.038Z,70.67
2018-11-22T20:54:17.544Z,88.33
2018-11-22T20:56:45.132Z,81.03
2018-11-22T20:59:12.590Z,84.20
2018-11-22T21:01:41.278Z,83.13
2018-11-22T21:04:08.791Z,75.73
2018-11-22T21:06:36.611Z,73.63
2018-11-22T21:09:05.429Z,88.60
2018-11-22T21:11:32.870Z,71.80
2018-11-22T21:14:00.293Z,77.17
2018-11-22T21:16:27.758Z,85.97
2018-11-22T21:18:55.288Z,72.30
2018-11-22T21:21:22.744Z,76.83
2018-11-22T21:23:50.234Z,74.47
2018-11-22T21:26:17.751Z,85.97
2018-11-22T21:28:45.356Z,81.80
2018-11-22T21:31:13.213Z,79.13
2018-11-22T21:33:40.771Z,83.40
2018-11-22T21:36:08.306Z,79.80
2018-11-22T21:38:35.774Z,81.53
2018-11-22T21:41:03.185Z,93.80
2018-11-22T21:43:30.662Z,82.90
2018-11-22T21:45:58.106Z,84.63
2018-11-22T21:48:25.558Z,84.23
2018-11-22T21:50:53.001Z,71.70
2018-11-22T21:53:20.406Z,83.17
2018-11-22T21:55:47.868Z,81.00
2018-11-22T21:58:15.276Z,86.47
2018-11-22T22:00:43.927Z,85.70
2018-11-22T22:03:11.994Z,79.43
2018-11-22T22:05:40.366Z,75.00
2018-11-22T22:08:08.230Z,82.87
2018-11-22T22:10:35.727Z,77.63
2018-11-22T22:13:03.162Z,86.47
2018-11-22T22:15:31.875Z,83.90
2018-11-22T22:17:59.338Z,90.47
2018-11-22T22:20:28.365Z,91.50
2018-11-22T22:22:55.758Z,93.73
2018-11-22T22:25:25.764Z,82.47
2018-11-22T22:27:53.748Z,83.27
2018-11-22T22:30:22.588Z,87.57
2018-11-22T22:32:51.728Z,97.37
2018-11-22T22:35:18.771Z,106.37
2018-11-22T22:37:46.237Z,83.10
2018-11-22T22:40:18.162Z,85.30
2018-11-22T22:42:46.565Z,76.00
2018-11-22T22:45:14.994Z,68.50
2018-11-22T22:47:43.100Z,80.97
2018-11-22T22:50:12.356Z,80.10
2018-11-22T22:52:39.806Z,90.53
2018-11-22T22:55:07.837Z,80.33
2018-11-22T22:57:35.265Z,85.60
2018-11-22T23:00:02.733Z,93.80
2018-11-22T23:02:30.185Z,87.50
2018-11-22T23:04:57.621Z,78.03
2018-11-22T23:07:25.198Z,82.90
2018-11-22T23:09:52.651Z,85.63
2018-11-22T23:12:20.164Z,103.67
2018-11-22T23:14:47.671Z,93.17
2018-11-22T23:17:15.745Z,86.27
2018-11-22T23:19:43.110Z,80.33
2018-11-22T23:22:10.606Z,75.30
2018-11-22T23:24:38.041Z,94.53
2018-11-22T23:27:05.493Z,79.37
2018-11-22T23:29:32.927Z,87.03
2018-11-22T23:32:00.428Z,83.27
2018-11-22T23:34:27.812Z,81.70
2018-11-22T23:36:55.237Z,79.73
2018-11-22T23:39:22.953Z,78.50
2018-11-22T23:41:50.371Z,78.43
2018-11-22T23:44:17.755Z,68.80
2018-11-22T23:46:45.173Z,78.30
2018-11-22T23:49:12.556Z,86.40
2018-11-22T23:51:40.076Z,79.97
2018-11-22T23:54:07.512Z,83.67
2018-11-22T23:56:34.898Z,85.37
2018-11-22T23:59:02.285Z,81.50
